Time;durP1;ratioP1;P1;durP2;ratioP2;P2;SDS_P1;SDS_P2;PMS_P1;PMS_P2;Temp;Humidity;BMP_temperature;BMP_pressure;BME280_temperature;BME280_humidity;BME280_pressure;Samples;Min_cycle;Max_cycle;Signal;HPM_P1;HPM_P2
2021/08/25 00:00:01;;;;;;;3.92;3.63;;;;;;;16.06;75.37;96172.84;5034066;28;20225;-82
2021/08/25 00:02:29;;;;;;;5.13;4.20;;;;;;;16.13;75.02;96172.88;5034417;28;20198;-81
2021/08/25 00:04:56;;;;;;;5.63;3.95;;;;;;;16.09;73.95;96164.66;5033903;28;20238;-84
2021/08/25 00:07:23;;;;;;;4.20;3.90;;;;;;;16.08;74.05;96168.25;5033495;28;20213;-82
2021/08/25 00:09:51;;;;;;;5.38;4.18;;;;;;;16.14;74.40;96175.28;5032416;28;20202;-81
2021/08/25 00:12:18;;;;;;;4.35;4.05;;;;;;;16.19;74.23;96169.47;5033451;28;20441;-82
2021/08/25 00:14:46;;;;;;;4.55;4.10;;;;;;;16.20;73.83;96181.47;5033503;28;20220;-82
2021/08/25 00:17:13;;;;;;;4.75;4.35;;;;;;;16.18;73.95;96173.06;5033990;28;20710;-81
2021/08/25 00:19:41;;;;;;;4.90;4.40;;;;;;;16.17;74.18;96174.06;5033761;28;20233;-85
2021/08/25 00:22:08;;;;;;;4.63;4.22;;;;;;;16.12;74.12;96169.47;5033731;28;20720;-82
2021/08/25 00:24:34;;;;;;;4.82;4.15;;;;;;;16.15;74.53;96166.50;5033374;28;20209;-82
2021/08/25 00:27:01;;;;;;;4.40;3.97;;;;;;;16.21;74.41;96165.69;5035337;28;20202;-83
2021/08/25 00:29:27;;;;;;;5.15;4.35;;;;;;;16.28;74.31;96162.31;5033215;28;20194;-81
2021/08/25 00:31:54;;;;;;;4.28;3.90;;;;;;;16.31;74.54;96162.72;5033705;28;20206;-82
2021/08/25 00:34:20;;;;;;;4.85;3.90;;;;;;;16.37;74.35;96153.31;5032907;28;20206;-83
2021/08/25 00:36:48;;;;;;;4.50;4.10;;;;;;;16.33;74.57;96150.31;5033899;28;20218;-82
2021/08/25 00:39:14;;;;;;;4.82;4.28;;;;;;;16.36;74.78;96149.91;5033939;28;20229;-81
2021/08/25 00:41:41;;;;;;;4.55;4.15;;;;;;;16.50;74.53;96148.13;5033754;28;20225;-82
2021/08/25 00:44:07;;;;;;;5.00;4.60;;;;;;;16.59;74.90;96154.72;5033641;28;20209;-83
2021/08/25 00:46:37;;;;;;;4.80;4.40;;;;;;;16.54;75.44;96151.94;5032632;28;20241;-82
2021/08/25 00:49:04;;;;;;;6.10;5.50;;;;;;;16.48;76.05;96156.13;5033346;28;20233;-83
2021/08/25 00:51:31;;;;;;;5.68;4.50;;;;;;;16.55;75.91;96148.31;5033772;28;20221;-83
2021/08/25 00:53:59;;;;;;;5.30;4.80;;;;;;;16.60;76.53;96153.72;5032111;28;20581;-82
2021/08/25 00:56:26;;;;;;;5.47;4.97;;;;;;;16.62;77.15;96141.31;5033154;28;20228;-84
2021/08/25 00:58:52;;;;;;;5.35;4.85;;;;;;;16.70;77.13;96141.16;5033396;28;20694;-82
2021/08/25 01:01:30;;;;;;;5.05;4.65;;;;;;;16.79;76.97;96147.75;5033170;28;20238;-84
2021/08/25 01:04:00;;;;;;;5.45;4.93;;;;;;;16.71;77.73;96147.97;5033227;28;20205;-82
2021/08/25 01:06:27;;;;;;;5.57;5.07;;;;;;;16.63;77.18;96150.75;5032597;28;20215;-83
2021/08/25 01:08:55;;;;;;;5.60;5.05;;;;;;;16.68;77.42;96147.56;5032611;28;20599;-81
2021/08/25 01:11:23;;;;;;;7.00;4.80;;;;;;;16.72;77.25;96148.78;5032702;28;20198;-82
2021/08/25 01:13:49;;;;;;;5.47;5.00;;;;;;;16.63;77.24;96148.16;5033154;28;20209;-84
2021/08/25 01:16:17;;;;;;;5.60;4.97;;;;;;;16.63;77.48;96148.16;5032882;28;20226;-83
2021/08/25 01:18:45;;;;;;;5.53;5.03;;;;;;;16.58;77.75;96153.94;5033494;28;20210;-82
2021/08/25 01:21:12;;;;;;;7.78;5.10;;;;;;;16.45;77.90;96151.31;5032838;28;20269;-81
2021/08/25 01:23:41;;;;;;;5.35;4.95;;;;;;;16.39;78.47;96148.72;5033525;28;20209;-84
2021/08/25 01:26:08;;;;;;;5.72;5.32;;;;;;;16.40;78.80;96151.13;5032533;28;20222;-84
2021/08/25 01:28:41;;;;;;;5.80;5.35;;;;;;;16.41;79.11;96147.53;5032912;28;20197;-81
2021/08/25 01:31:09;;;;;;;5.95;5.45;;;;;;;16.34;79.39;96135.53;5032646;28;20206;-85
2021/08/25 01:33:35;;;;;;;5.65;5.15;;;;;;;16.30;79.51;96137.72;5032598;28;20674;-82
2021/08/25 01:36:02;;;;;;;5.57;5.15;;;;;;;16.26;80.09;96135.72;5032618;28;20218;-82
2021/08/25 01:38:37;;;;;;;5.65;5.25;;;;;;;16.31;79.72;96139.31;5032573;28;20198;-81
2021/08/25 01:41:03;;;;;;;7.40;5.72;;;;;;;16.31;79.18;96131.53;5036730;28;20229;-82
2021/08/25 01:43:30;;;;;;;6.20;5.70;;;;;;;16.24;79.54;96135.91;5037998;28;20205;-81
2021/08/25 01:45:56;;;;;;;6.00;5.50;;;;;;;16.29;79.20;96123.13;5036323;28;20237;-82
2021/08/25 01:48:24;;;;;;;5.95;5.45;;;;;;;16.33;78.98;96120.94;5036539;28;20233;-82
2021/08/25 01:50:51;;;;;;;5.72;5.22;;;;;;;16.33;78.66;96126.13;5035922;28;20201;-82
2021/08/25 01:53:17;;;;;;;6.22;5.70;;;;;;;16.30;78.75;96127.31;5036379;28;20201;-84
2021/08/25 01:55:44;;;;;;;6.28;5.47;;;;;;;16.20;79.22;96122.50;5036449;28;20229;-82
2021/08/25 01:58:11;;;;;;;6.28;5.68;;;;;;;16.22;79.55;96117.13;5036553;28;20739;-84
2021/08/25 02:00:38;;;;;;;5.60;5.20;;;;;;;16.17;79.52;96112.50;5035945;28;20735;-83
2021/08/25 02:03:04;;;;;;;6.50;5.90;;;;;;;16.17;79.32;96112.50;5036437;28;20226;-83
2021/08/25 02:05:32;;;;;;;5.93;5.43;;;;;;;16.16;79.22;96105.72;5036490;28;20226;-83
2021/08/25 02:07:59;;;;;;;5.93;5.30;;;;;;;16.10;79.78;96097.94;5036688;28;20403;-82
2021/08/25 02:10:25;;;;;;;6.43;5.82;;;;;;;16.00;79.94;96098.28;5036317;28;20194;-84
2021/08/25 02:12:51;;;;;;;6.05;5.55;;;;;;;16.02;79.83;96098.91;5035745;28;20202;-83
2021/08/25 02:15:18;;;;;;;6.15;5.65;;;;;;;16.08;79.41;96098.13;5035321;28;20221;-83
2021/08/25 02:17:44;;;;;;;7.75;6.15;;;;;;;15.98;79.78;96087.28;5036025;28;20576;-84
2021/08/25 02:20:12;;;;;;;6.32;5.72;;;;;;;15.90;80.37;96084.91;5035410;28;20263;-83
2021/08/25 02:22:40;;;;;;;6.38;5.78;;;;;;;15.76;81.04;96081.50;5034849;28;20202;-83
2021/08/25 02:25:07;;;;;;;7.35;6.03;;;;;;;15.80;80.85;96076.69;5035565;28;20226;-83
2021/08/25 02:27:33;;;;;;;6.65;6.10;;;;;;;15.87;80.74;96078.31;5035374;28;20217;-83
2021/08/25 02:30:00;;;;;;;6.18;5.68;;;;;;;15.83;80.82;96065.91;5035802;28;20889;-84
2021/08/25 02:32:27;;;;;;;6.27;5.77;;;;;;;15.79;81.00;96064.69;5035482;28;20202;-81
2021/08/25 02:34:54;;;;;;;8.30;6.13;;;;;;;15.67;81.40;96067.06;5039288;28;20222;-83
2021/08/25 02:37:21;;;;;;;6.82;6.22;;;;;;;15.68;81.43;96060.09;5039247;28;20213;-84
2021/08/25 02:39:49;;;;;;;6.60;6.03;;;;;;;15.71;81.52;96064.88;5039602;28;20222;-83
2021/08/25 02:42:15;;;;;;;6.90;6.27;;;;;;;15.70;81.28;96061.50;5038165;28;20198;-84
2021/08/25 02:44:42;;;;;;;6.87;6.27;;;;;;;15.64;81.50;96072.66;5038759;28;20199;-85
2021/08/25 02:47:09;;;;;;;6.20;5.70;;;;;;;15.73;81.54;96075.88;5038101;28;20233;-82
2021/08/25 02:49:35;;;;;;;7.80;5.90;;;;;;;15.79;81.13;96075.06;5039297;28;20202;-82
2021/08/25 02:52:02;;;;;;;6.70;6.10;;;;;;;15.74;81.45;96075.69;5039056;28;20206;-82
2021/08/25 02:54:28;;;;;;;6.87;6.10;;;;;;;15.77;81.60;96069.31;5038163;28;20214;-83
2021/08/25 02:56:56;;;;;;;6.60;6.05;;;;;;;15.79;81.08;96078.47;5038139;28;20229;-84
2021/08/25 02:59:22;;;;;;;6.28;5.68;;;;;;;15.80;81.26;96074.88;5037754;28;20209;-85
2021/08/25 03:01:49;;;;;;;6.43;5.83;;;;;;;15.76;81.41;96078.88;5037649;28;20265;-82
2021/08/25 03:04:16;;;;;;;6.55;5.95;;;;;;;15.74;82.31;96072.28;5036548;28;20206;-84
2021/08/25 03:06:42;;;;;;;8.25;5.68;;;;;;;15.75;81.48;96066.91;5037264;28;20250;-82
2021/08/25 03:09:08;;;;;;;7.03;6.40;;;;;;;15.62;81.62;96066.06;5037464;28;20199;-83
2021/08/25 03:11:35;;;;;;;6.60;6.00;;;;;;;15.68;81.54;96067.88;5037496;28;20198;-84
2021/08/25 03:14:03;;;;;;;7.75;5.68;;;;;;;15.68;81.37;96071.28;5036707;28;20202;-84
2021/08/25 03:16:30;;;;;;;6.90;6.30;;;;;;;15.73;80.79;96062.91;5036779;28;20606;-85
2021/08/25 03:18:56;;;;;;;7.43;6.63;;;;;;;15.66;80.80;96064.66;5037365;28;20572;-85
2021/08/25 03:21:23;;;;;;;6.43;5.82;;;;;;;15.60;81.19;96060.25;5036254;28;20222;-85
2021/08/25 03:23:49;;;;;;;6.25;5.75;;;;;;;15.66;80.90;96062.06;5036552;28;20206;-85
2021/08/25 03:26:17;;;;;;;6.28;5.78;;;;;;;15.62;81.37;96068.66;5036942;28;20222;-85
2021/08/25 03:28:43;;;;;;;7.00;6.28;;;;;;;15.59;81.08;96062.03;5037636;28;20210;-85
2021/08/25 03:31:12;;;;;;;6.38;5.78;;;;;;;15.62;81.00;96068.66;5032435;28;20194;-83
2021/08/25 03:33:38;;;;;;;6.90;6.32;;;;;;;15.55;80.80;96063.44;5036195;28;20203;-84
2021/08/25 03:36:05;;;;;;;6.60;6.03;;;;;;;15.49;81.44;96059.00;5036458;28;20222;-83
2021/08/25 03:38:32;;;;;;;6.07;5.57;;;;;;;15.45;81.57;96060.38;5035682;28;20211;-81
2021/08/25 03:40:58;;;;;;;7.03;6.33;;;;;;;15.45;81.02;96056.00;5035444;28;20233;-83
2021/08/25 03:43:25;;;;;;;6.38;5.78;;;;;;;15.46;81.45;96047.22;5035921;28;20206;-83
2021/08/25 03:45:51;;;;;;;6.13;5.63;;;;;;;15.49;80.85;96061.59;5036386;28;20213;-82
2021/08/25 03:48:19;;;;;;;8.30;6.32;;;;;;;15.42;81.25;96050.38;5035692;28;20732;-81
2021/08/25 03:50:45;;;;;;;6.53;5.90;;;;;;;15.44;81.34;96057.00;5036475;28;20673;-83
2021/08/25 03:53:12;;;;;;;6.70;5.87;;;;;;;15.45;81.15;96047.41;5028657;28;20199;-82
2021/08/25 03:55:38;;;;;;;6.87;6.27;;;;;;;15.32;81.28;96049.97;5030604;28;20225;-81
2021/08/25 03:58:05;;;;;;;6.50;5.97;;;;;;;15.37;81.41;96048.41;5036326;28;20202;-84
2021/08/25 04:00:32;;;;;;;7.27;6.63;;;;;;;15.30;81.54;96051.97;5035869;28;20249;-82
2021/08/25 04:02:58;;;;;;;6.30;5.80;;;;;;;15.32;81.90;96050.78;5036047;28;20225;-82
2021/08/25 04:05:26;;;;;;;7.20;6.60;;;;;;;15.28;81.79;96052.16;5035481;28;20225;-83
2021/08/25 04:07:53;;;;;;;6.50;6.00;;;;;;;15.15;82.63;96045.13;5035945;28;20575;-83
2021/08/25 04:10:19;;;;;;;7.00;6.40;;;;;;;15.20;82.18;96042.72;5036073;28;20209;-85
2021/08/25 04:12:46;;;;;;;6.80;6.10;;;;;;;15.18;82.63;96039.56;5036602;28;20430;-85
2021/08/25 04:15:12;;;;;;;7.43;6.20;;;;;;;15.24;82.41;96044.94;5035744;28;20237;-82
2021/08/25 04:17:39;;;;;;;7.13;6.43;;;;;;;15.19;82.45;96043.75;5035949;28;20209;-85
2021/08/25 04:20:07;;;;;;;7.20;6.57;;;;;;;15.08;82.98;96040.88;5035646;28;20222;-82
2021/08/25 04:22:35;;;;;;;7.80;7.10;;;;;;;15.04;83.14;96034.47;5032698;28;20194;-83
2021/08/25 04:25:01;;;;;;;7.40;6.80;;;;;;;15.02;83.55;96036.47;5035332;28;20220;-85
2021/08/25 04:27:28;;;;;;;7.80;7.10;;;;;;;14.98;83.73;96043.84;5033777;28;20880;-82
2021/08/25 04:29:54;;;;;;;7.70;7.10;;;;;;;15.05;83.97;96038.69;5031446;28;20248;-83
2021/08/25 04:32:21;;;;;;;7.43;6.83;;;;;;;15.06;83.52;96035.09;5034519;28;20670;-82
2021/08/25 04:34:47;;;;;;;7.47;6.77;;;;;;;15.04;83.91;96039.66;5034582;28;20206;-84
2021/08/25 04:37:13;;;;;;;7.87;7.20;;;;;;;14.98;84.00;96038.66;5035446;28;20198;-82
2021/08/25 04:39:41;;;;;;;7.80;7.00;;;;;;;15.07;83.63;96032.31;5035409;28;20206;-84
2021/08/25 04:42:08;;;;;;;7.40;6.80;;;;;;;15.09;83.24;96043.28;5030621;28;20217;-82
2021/08/25 04:44:34;;;;;;;8.60;7.80;;;;;;;15.09;83.04;96038.09;5038351;28;20242;-84
2021/08/25 04:47:01;;;;;;;7.63;6.70;;;;;;;15.13;83.36;96044.50;5028784;28;20234;-83
2021/08/25 04:49:27;;;;;;;7.73;7.03;;;;;;;15.11;82.92;96048.28;5023868;28;20209;-82
2021/08/25 04:51:54;;;;;;;7.23;6.67;;;;;;;15.11;83.09;96037.91;5014134;28;20365;-84
2021/08/25 04:54:20;;;;;;;7.13;6.53;;;;;;;15.20;83.06;96037.53;5013962;28;20210;-83
2021/08/25 04:56:48;;;;;;;8.47;7.70;;;;;;;15.13;83.69;96036.72;5013421;28;20231;-84
2021/08/25 04:59:14;;;;;;;8.50;6.77;;;;;;;15.19;85.64;96032.56;5043940;28;20202;-82
2021/08/25 05:01:41;;;;;;;9.37;8.53;;;;;;;15.17;82.45;96035.34;5036286;28;20214;-84
2021/08/25 05:04:07;;;;;;;12.83;11.53;;;;;;;15.27;81.87;96034.19;5033030;28;20208;-81
2021/08/25 05:06:34;;;;;;;8.47;7.67;;;;;;;15.17;82.18;96029.38;5032897;28;20242;-81
2021/08/25 05:09:00;;;;;;;9.47;7.60;;;;;;;15.12;82.07;96027.34;5032567;28;20190;-82
2021/08/25 05:11:27;;;;;;;7.77;6.97;;;;;;;15.13;82.28;96033.34;5032946;28;20193;-82
2021/08/25 05:13:54;;;;;;;9.77;7.40;;;;;;;15.07;82.91;96031.50;5017577;28;20285;-82
2021/08/25 05:16:21;;;;;;;7.50;6.80;;;;;;;15.11;82.37;96035.31;5025055;28;20236;-84
2021/08/25 05:18:47;;;;;;;7.73;6.97;;;;;;;15.11;82.61;96037.91;5033590;28;20210;-83
2021/08/25 05:21:14;;;;;;;7.53;6.83;;;;;;;15.09;82.91;96035.50;5032842;28;20723;-82
2021/08/25 05:23:40;;;;;;;7.20;6.60;;;;;;;15.13;83.45;96035.94;5033000;28;20612;-82
2021/08/25 05:26:07;;;;;;;7.13;6.43;;;;;;;15.27;82.46;96039.38;5032792;28;20248;-83
2021/08/25 05:28:34;;;;;;;7.30;6.60;;;;;;;15.42;81.13;96045.19;5033452;28;20206;-83
2021/08/25 05:31:02;;;;;;;6.93;6.33;;;;;;;15.33;81.00;96047.19;5028739;28;20201;-82
2021/08/25 05:33:29;;;;;;;7.67;6.80;;;;;;;15.29;81.57;96052.94;5032859;28;20654;-82
2021/08/25 05:35:55;;;;;;;7.23;6.60;;;;;;;15.26;81.40;96054.13;5031762;28;20600;-83
2021/08/25 05:38:22;;;;;;;7.67;6.97;;;;;;;15.28;81.52;96040.97;5031659;28;20206;-84
2021/08/25 05:40:48;;;;;;;7.47;6.88;;;;;;;15.43;80.61;96039.00;5032374;28;20229;-82
2021/08/25 05:43:17;;;;;;;7.80;6.30;;;;;;;15.57;79.22;96053.69;5036953;28;20228;-82
2021/08/25 05:45:44;;;;;;;10.30;6.67;;;;;;;15.46;78.70;96046.41;5050751;28;20213;-81
2021/08/25 05:48:12;;;;;;;7.63;6.95;;;;;;;15.42;78.84;96046.00;5034604;28;20233;-84
2021/08/25 05:50:38;;;;;;;6.43;5.83;;;;;;;15.41;79.34;96039.22;5026981;28;20210;-83
2021/08/25 05:53:05;;;;;;;7.17;6.47;;;;;;;15.52;79.23;96040.44;5032000;28;20202;-81
2021/08/25 05:55:31;;;;;;;6.77;6.17;;;;;;;15.60;78.44;96031.69;5032092;28;20214;-82
2021/08/25 05:57:57;;;;;;;7.63;6.90;;;;;;;15.58;77.89;96039.72;5032153;28;20209;-85
2021/08/25 06:00:24;;;;;;;7.47;6.73;;;;;;;15.37;77.91;96042.41;5032195;28;20499;-83
2021/08/25 06:02:51;;;;;;;6.30;5.80;;;;;;;15.39;77.85;96040.44;5032718;28;20705;-82
2021/08/25 06:05:19;;;;;;;6.47;5.97;;;;;;;15.49;78.46;96044.22;5031793;28;20226;-82
2021/08/25 06:07:45;;;;;;;7.20;5.60;;;;;;;15.57;77.02;96050.28;5032305;28;20245;-82
2021/08/25 06:10:12;;;;;;;5.93;5.43;;;;;;;15.66;77.41;96043.91;5035740;28;20202;-84
2021/08/25 06:12:39;;;;;;;7.03;5.82;;;;;;;15.58;77.04;96049.28;5036329;28;20198;-83
2021/08/25 06:15:07;;;;;;;10.40;7.57;;;;;;;15.49;76.70;96043.44;5036432;28;20226;-84
2021/08/25 06:17:33;;;;;;;9.83;6.40;;;;;;;15.49;76.84;96043.44;5036045;28;20213;-83
2021/08/25 06:20:00;;;;;;;6.50;5.90;;;;;;;15.49;76.57;96040.84;5035732;28;20234;-84
2021/08/25 06:22:28;;;;;;;8.20;6.23;;;;;;;15.44;77.75;96040.63;5036505;28;20222;-82
2021/08/25 06:24:54;;;;;;;6.40;5.78;;;;;;;15.57;77.94;96042.50;5025645;28;20211;-84
2021/08/25 06:27:20;;;;;;;8.80;5.93;;;;;;;15.59;76.36;96048.31;5016720;28;20210;-83
2021/08/25 06:29:47;;;;;;;6.23;5.47;;;;;;;15.73;76.57;96042.13;5016254;28;20206;-85
2021/08/25 06:32:13;;;;;;;5.83;5.33;;;;;;;15.84;75.61;96047.53;5016583;28;20207;-83
2021/08/25 06:34:40;;;;;;;5.30;4.90;;;;;;;15.96;75.24;96055.56;5015537;28;20199;-83
2021/08/25 06:37:06;;;;;;;5.82;5.25;;;;;;;15.98;74.24;96042.34;5028014;28;20210;-85
2021/08/25 06:39:34;;;;;;;6.00;5.50;;;;;;;15.69;73.81;96044.31;5035380;28;20654;-82
2021/08/25 06:42:01;;;;;;;6.03;5.43;;;;;;;15.67;75.25;96041.13;5035459;28;20229;-83
2021/08/25 06:44:27;;;;;;;6.27;5.73;;;;;;;15.66;75.05;96044.69;5022594;28;20210;-81
2021/08/25 06:46:54;;;;;;;5.87;5.27;;;;;;;15.65;75.18;96050.09;5017708;28;20226;-83
2021/08/25 06:49:20;;;;;;;6.30;5.18;;;;;;;15.77;75.41;96043.34;5035551;28;20241;-81
2021/08/25 06:51:47;;;;;;;6.80;5.30;;;;;;;15.81;74.23;96039.31;5034928;28;20209;-84
2021/08/25 06:54:14;;;;;;;7.17;5.60;;;;;;;15.92;74.41;96030.16;5035389;28;20202;-82
2021/08/25 06:56:42;;;;;;;6.20;5.03;;;;;;;16.05;74.96;96027.56;5034838;28;20229;-84
2021/08/25 06:59:08;;;;;;;5.90;5.40;;;;;;;16.12;73.48;96033.59;5035476;28;20206;-81
2021/08/25 07:01:35;;;;;;;5.82;5.13;;;;;;;16.15;72.21;96034.00;5035271;28;20950;-82
2021/08/25 07:04:01;;;;;;;8.00;5.07;;;;;;;16.28;71.92;96022.78;5034913;28;20210;-82
2021/08/25 07:06:28;;;;;;;5.60;5.10;;;;;;;16.31;72.17;96024.19;5035113;28;20229;-84
2021/08/25 07:08:54;;;;;;;5.45;4.95;;;;;;;16.43;71.75;96009.56;5034894;28;20210;-81
2021/08/25 07:11:21;;;;;;;5.10;4.70;;;;;;;16.41;70.02;96017.56;5034717;28;20190;-83
2021/08/25 07:13:48;;;;;;;5.25;4.75;;;;;;;16.43;69.97;96015.56;5034605;28;20202;-85
2021/08/25 07:16:16;;;;;;;4.95;4.38;;;;;;;16.55;70.29;96016.53;5034500;28;20226;-83
2021/08/25 07:18:43;;;;;;;4.95;4.55;;;;;;;16.70;69.86;96011.16;5035368;28;20285;-82
2021/08/25 07:21:10;;;;;;;4.70;4.20;;;;;;;16.82;69.50;96012.13;5034003;28;20218;-82
2021/08/25 07:23:37;;;;;;;4.57;4.18;;;;;;;16.84;68.03;96007.50;5035003;28;20198;-84
2021/08/25 07:26:04;;;;;;;4.45;4.05;;;;;;;16.93;68.58;96018.50;5034359;28;20222;-84
2021/08/25 07:28:32;;;;;;;4.45;4.05;;;;;;;17.07;66.25;96017.44;5034887;28;20199;-83
2021/08/25 07:31:00;;;;;;;4.80;4.30;;;;;;;17.29;66.45;96025.75;5034663;28;20198;-80
2021/08/25 07:33:26;;;;;;;4.70;4.03;;;;;;;17.43;65.51;96024.69;5034729;28;20202;-81
2021/08/25 07:35:53;;;;;;;4.28;3.88;;;;;;;17.56;66.12;96027.22;5034373;28;20234;-83
2021/08/25 07:38:19;;;;;;;4.72;4.20;;;;;;;17.68;65.17;96018.78;5034689;28;20198;-81
2021/08/25 07:40:46;;;;;;;8.10;3.97;;;;;;;17.81;63.72;96019.47;5034687;28;20203;-82
2021/08/25 07:43:12;;;;;;;4.70;4.30;;;;;;;17.86;61.98;96022.25;5030474;28;20206;-83
2021/08/25 07:45:39;;;;;;;5.47;4.10;;;;;;;17.99;62.20;96023.97;5015454;28;20586;-85
2021/08/25 07:48:07;;;;;;;4.65;4.25;;;;;;;17.96;62.55;96024.38;5026545;28;20205;-82
2021/08/25 07:50:34;;;;;;;4.05;3.55;;;;;;;18.00;62.33;96030.78;5033845;28;20205;-84
2021/08/25 07:53:01;;;;;;;4.20;3.80;;;;;;;18.17;61.38;96020.63;5034437;28;20245;-81
2021/08/25 07:55:28;;;;;;;4.57;3.75;;;;;;;18.28;60.74;96019.91;5033888;28;20709;-84
2021/08/25 07:57:54;;;;;;;4.70;3.85;;;;;;;18.29;61.23;96016.28;5033758;28;20213;-84
2021/08/25 08:00:20;;;;;;;4.03;3.60;;;;;;;18.44;61.37;96016.78;5033735;28;20206;-83
2021/08/25 08:02:47;;;;;;;4.70;3.88;;;;;;;18.59;61.33;96006.03;5033677;28;20229;-83
2021/08/25 08:05:15;;;;;;;6.80;3.75;;;;;;;18.85;61.25;96004.97;5034449;28;20226;-84
2021/08/25 08:07:42;;;;;;;4.70;4.25;;;;;;;18.98;59.06;96015.25;5033114;28;20198;-84
2021/08/25 08:10:09;;;;;;;4.25;3.85;;;;;;;19.20;58.75;96013.00;5030109;28;20202;-83
2021/08/25 08:12:35;;;;;;;4.55;3.83;;;;;;;19.11;58.83;96022.13;5027171;28;20210;-82
2021/08/25 08:15:04;;;;;;;5.07;3.50;;;;;;;19.00;59.56;96017.66;5032963;28;20225;-84
2021/08/25 08:17:31;;;;;;;4.53;3.85;;;;;;;18.94;58.53;96014.09;5033363;28;20209;-81
2021/08/25 08:19:57;;;;;;;4.55;3.78;;;;;;;18.96;57.57;96027.72;5033108;28;20293;-84
2021/08/25 08:22:25;;;;;;;4.05;3.70;;;;;;;19.08;57.54;96025.16;5034166;28;20272;-82
2021/08/25 08:24:52;;;;;;;3.85;3.50;;;;;;;19.01;57.03;96025.25;5033351;28;20202;-82
2021/08/25 08:27:18;;;;;;;4.28;3.30;;;;;;;19.43;57.25;96020.13;5034184;28;20202;-83
2021/08/25 08:29:45;;;;;;;4.38;3.72;;;;;;;19.48;56.05;96020.25;5032994;28;20692;-84
2021/08/25 08:32:11;;;;;;;4.57;3.95;;;;;;;19.49;57.44;96020.03;5033015;28;20214;-81
2021/08/25 08:34:38;;;;;;;5.30;4.00;;;;;;;19.57;56.77;96029.41;5033449;28;20209;-83
2021/08/25 08:37:05;;;;;;;4.18;3.78;;;;;;;19.60;55.33;96021.94;5033336;28;20623;-82
2021/08/25 08:39:33;;;;;;;3.80;3.50;;;;;;;19.82;55.18;96011.75;5033316;28;20348;-82
2021/08/25 08:41:59;;;;;;;3.67;3.38;;;;;;;20.10;55.93;96016.38;5033826;28;20253;-85
2021/08/25 08:44:27;;;;;;;6.13;3.90;;;;;;;20.10;54.39;96024.22;5033737;28;20218;-83
2021/08/25 08:46:54;;;;;;;4.72;3.55;;;;;;;20.11;54.19;96017.97;5033714;28;20218;-85
2021/08/25 08:49:20;;;;;;;3.83;3.35;;;;;;;20.13;55.84;96017.75;5033118;28;20198;-82
2021/08/25 08:51:48;;;;;;;3.75;3.45;;;;;;;20.02;53.84;96019.31;5033174;28;20206;-84
2021/08/25 08:54:15;;;;;;;4.05;3.65;;;;;;;20.08;54.03;96022.84;5033341;28;20206;-82
2021/08/25 08:56:43;;;;;;;4.32;3.92;;;;;;;20.07;52.47;96016.03;5033573;28;20249;-84
2021/08/25 08:59:09;;;;;;;4.10;3.63;;;;;;;20.02;54.01;96019.31;5033670;28;20202;-83
2021/08/25 09:01:36;;;;;;;4.35;3.78;;;;;;;20.06;52.81;96015.22;5033484;28;20218;-85
2021/08/25 09:04:03;;;;;;;4.40;4.00;;;;;;;20.02;52.06;96009.63;5033318;28;20202;-83
2021/08/25 09:06:43;;;;;;;3.97;3.60;;;;;;;20.17;52.52;96013.66;5031882;28;20233;-85
2021/08/25 09:09:09;;;;;;;4.28;3.88;;;;;;;20.01;52.63;96013.28;5032990;28;20313;-82
2021/08/25 09:11:50;;;;;;;6.05;3.90;;;;;;;20.23;51.74;96004.88;5032165;28;20186;-85
2021/08/25 09:14:17;;;;;;;8.15;3.80;;;;;;;20.09;51.51;96009.53;5032184;28;20830;-84
2021/08/25 09:16:43;;;;;;;5.32;3.40;;;;;;;20.49;51.76;95996.63;5032192;28;20230;-83
2021/08/25 09:19:13;;;;;;;6.97;3.53;;;;;;;20.76;51.09;96004.81;5032924;28;20205;-85
2021/08/25 09:21:42;;;;;;;3.97;3.58;;;;;;;20.63;49.94;96003.22;5033269;28;20240;-82
2021/08/25 09:24:10;;;;;;;3.80;3.50;;;;;;;20.88;51.24;96008.19;5032911;28;20190;-84
2021/08/25 09:26:39;;;;;;;6.22;3.78;;;;;;;21.07;50.39;96000.19;5036417;28;20210;-83
2021/08/25 09:29:21;;;;;;;4.20;3.70;;;;;;;21.18;49.85;96000.16;5036496;28;20297;-84
2021/08/25 09:31:48;;;;;;;4.18;3.78;;;;;;;21.35;48.12;96001.06;5036453;28;20198;-82
2021/08/25 09:34:34;;;;;;;5.38;4.07;;;;;;;21.21;48.92;95996.31;5035484;28;20213;-82
2021/08/25 09:37:08;;;;;;;5.85;3.65;;;;;;;20.87;48.31;95993.53;5036214;28;20684;-82
2021/08/25 09:39:35;;;;;;;4.80;3.85;;;;;;;20.79;49.10;96004.34;5035297;28;20205;-82
2021/08/25 09:42:04;;;;;;;4.55;3.85;;;;;;;21.02;47.46;96000.88;5035369;28;20210;-82
2021/08/25 09:44:31;;;;;;;3.67;3.38;;;;;;;21.13;48.14;96005.31;5040536;28;20206;-83
2021/08/25 09:46:58;;;;;;;5.07;3.65;;;;;;;21.25;48.05;95995.59;5040377;28;20305;-84
2021/08/25 09:49:24;;;;;;;6.57;3.70;;;;;;;21.30;47.49;95987.84;5039745;28;20190;-85
2021/08/25 09:51:54;;;;;;;4.20;3.80;;;;;;;21.15;47.98;95989.38;5039141;28;20202;-83
2021/08/25 09:54:21;;;;;;;4.60;3.70;;;;;;;21.28;49.75;95986.50;5038616;28;20624;-82
2021/08/25 09:56:52;;;;;;;3.63;3.33;;;;;;;21.79;48.13;95992.63;5039097;28;20214;-83
2021/08/25 09:59:18;;;;;;;4.72;3.90;;;;;;;21.56;47.21;95985.69;5038937;28;20190;-82
2021/08/25 10:01:49;;;;;;;4.63;3.72;;;;;;;21.19;47.24;95993.09;5037495;28;20230;-84
2021/08/25 10:04:17;;;;;;;4.22;3.67;;;;;;;21.14;47.28;95988.56;5037234;28;20210;-82
2021/08/25 10:06:44;;;;;;;5.20;4.13;;;;;;;21.11;46.58;95981.19;5037831;28;20405;-81
2021/08/25 10:09:11;;;;;;;4.45;3.72;;;;;;;21.24;47.16;95974.88;5037452;28;20198;-84
2021/08/25 10:11:40;;;;;;;4.32;3.92;;;;;;;21.33;46.93;95971.69;5038151;28;20195;-85
2021/08/25 10:14:09;;;;;;;4.88;3.50;;;;;;;21.22;46.33;95975.13;5033771;28;20214;-82
2021/08/25 10:16:44;;;;;;;4.63;3.90;;;;;;;21.57;46.37;95971.53;5026487;28;20237;-82
2021/08/25 10:19:36;;;;;;;4.80;3.83;;;;;;;21.92;46.86;95963.50;5037957;28;20202;-82
2021/08/25 10:22:24;;;;;;;4.22;3.60;;;;;;;22.10;48.13;95955.44;5037856;28;20222;-81
2021/08/25 10:25:05;;;;;;;4.75;3.47;;;;;;;21.70;47.45;95960.78;5037307;28;20281;-82
2021/08/25 10:27:33;;;;;;;6.43;3.92;;;;;;;21.66;48.32;95949.97;5038408;28;20285;-84
2021/08/25 10:30:10;;;;;;;4.13;3.72;;;;;;;21.62;46.79;95948.06;5026450;28;20717;-82
2021/08/25 10:32:39;;;;;;;4.22;3.83;;;;;;;21.70;45.74;95945.84;5018101;28;20191;-82
2021/08/25 10:35:25;;;;;;;4.07;3.47;;;;;;;21.55;44.21;95942.19;5024937;28;20609;-84
2021/08/25 10:37:52;;;;;;;3.78;3.35;;;;;;;21.56;46.78;95944.53;5037516;28;20241;-83
2021/08/25 10:40:30;;;;;;;4.32;3.33;;;;;;;21.77;45.37;95932.56;5035934;28;20296;-83
2021/08/25 10:43:00;;;;;;;3.70;3.40;;;;;;;22.10;45.78;95936.28;5036507;28;20222;-82
2021/08/25 10:45:58;;;;;;;4.00;3.60;;;;;;;21.93;43.97;95933.63;5036283;28;20309;-83
2021/08/25 10:48:42;;;;;;;4.78;3.80;;;;;;;21.94;44.33;95924.69;5035523;28;20869;-82
2021/08/25 10:51:34;;;;;;;3.50;3.20;;;;;;;22.22;44.54;95923.84;5034970;28;20197;-82
2021/08/25 10:54:01;;;;;;;4.90;3.30;;;;;;;22.34;45.33;95908.78;5015431;28;20202;-83
2021/08/25 10:56:31;;;;;;;3.83;3.53;;;;;;;22.46;44.46;95913.94;5025753;28;20214;-81
2021/08/25 10:59:02;;;;;;;3.80;3.40;;;;;;;22.23;44.70;95912.31;5036285;28;20553;-82
2021/08/25 11:01:30;;;;;;;3.80;3.35;;;;;;;22.27;44.30;95906.34;5035910;28;20210;-82
2021/08/25 11:03:58;;;;;;;4.00;3.60;;;;;;;22.34;45.49;95901.72;5035640;28;20222;-84
2021/08/25 11:06:31;;;;;;;4.10;3.65;;;;;;;22.49;44.81;95898.50;5034877;28;20229;-83
2021/08/25 11:09:15;;;;;;;3.95;3.63;;;;;;;22.35;44.19;95902.50;5036040;28;20202;-80
2021/08/25 11:11:46;;;;;;;3.55;3.25;;;;;;;22.29;45.27;95901.66;5035894;28;20210;-82
2021/08/25 11:14:26;;;;;;;3.75;3.42;;;;;;;22.35;45.15;95889.38;5036224;28;20229;-82
2021/08/25 11:16:56;;;;;;;4.75;4.05;;;;;;;22.33;43.67;95896.69;5036056;28;20226;-84
2021/08/25 11:19:28;;;;;;;5.53;3.75;;;;;;;22.21;44.84;95894.19;5035304;28;20778;-83
2021/08/25 11:21:57;;;;;;;4.18;3.78;;;;;;;22.12;44.67;95887.78;5035391;28;20206;-81
2021/08/25 11:24:31;;;;;;;4.50;3.60;;;;;;;22.14;46.07;95884.91;5028829;28;20220;-84
2021/08/25 11:26:58;;;;;;;4.07;3.67;;;;;;;21.93;47.58;95881.19;5035098;28;20231;-81
2021/08/25 11:29:24;;;;;;;4.25;3.53;;;;;;;21.95;46.64;95884.34;5035266;28;20202;-80
2021/08/25 11:31:53;;;;;;;4.55;3.80;;;;;;;21.75;48.52;95887.44;5034941;28;20205;-84
2021/08/25 11:34:22;;;;;;;4.72;4.00;;;;;;;21.67;46.83;95874.75;5034371;28;20194;-82
2021/08/25 11:36:59;;;;;;;4.50;3.63;;;;;;;21.13;45.71;95877.00;5034096;28;20317;-82